Time;durP1;ratioP1;P1;durP2;ratioP2;P2;SDS_P1;SDS_P2;PMS_P1;PMS_P2;Temp;Humidity;BMP_temperature;BMP_pressure;BME280_temperature;BME280_humidity;BME280_pressure;Samples;Min_cycle;Max_cycle;Signal;HPM_P1;HPM_P2
2023/09/03 00:09:12;;;;;;;4.45;3.42;;;;;;;28.08;43.91;101700.50;21072413;28;20479;-60
2023/09/03 00:19:13;;;;;;;6.28;3.28;;;;;;;28.13;44.39;101702.38;21063840;28;20028;-60
2023/09/03 00:29:15;;;;;;;4.88;3.35;;;;;;;28.15;44.52;101704.91;21045278;28;20479;-59
2023/09/03 00:39:18;;;;;;;4.63;3.60;;;;;;;28.17;44.66;101717.50;21041801;28;20066;-60
2023/09/03 00:49:22;;;;;;;6.68;4.07;;;;;;;28.14;45.06;101720.13;21088632;28;20048;-59
2023/09/03 00:59:27;;;;;;;12.82;6.90;;;;;;;28.09;45.29;101718.25;21044353;28;20044;-62
2023/09/03 01:09:28;;;;;;;20.95;11.52;;;;;;;28.15;45.56;101738.69;21088881;28;20040;-61
2023/09/03 01:19:55;;;;;;;30.13;15.00;;;;;;;28.16;45.71;101731.91;21046293;28;20044;-60
2023/09/03 01:29:58;;;;;;;46.33;21.50;;;;;;;28.14;45.97;101709.72;21032915;28;20048;-61
2023/09/03 01:40:00;;;;;;;48.08;20.02;;;;;;;28.22;45.82;101728.66;21077091;28;20044;-61
2023/09/03 01:50:27;;;;;;;34.42;16.80;;;;;;;28.21;45.75;101732.63;21059256;28;20441;-62
2023/09/03 02:00:32;;;;;;;25.85;12.00;;;;;;;28.23;45.75;101741.59;21065759;28;20044;-61
2023/09/03 02:10:33;;;;;;;20.27;9.68;;;;;;;28.20;45.61;101738.56;21068347;28;20035;-61
2023/09/03 02:20:34;;;;;;;16.27;9.32;;;;;;;28.21;45.76;101731.78;21040997;28;20487;-61
2023/09/03 02:30:36;;;;;;;15.73;7.75;;;;;;;28.22;45.72;101717.41;21071240;28;20348;-61
2023/09/03 02:40:37;;;;;;;11.45;6.75;;;;;;;28.10;45.64;101705.84;21050730;28;20446;-62
2023/09/03 02:50:38;;;;;;;7.32;6.00;;;;;;;28.24;45.62;101720.75;21071782;28;20104;-62
2023/09/03 03:00:40;;;;;;;10.40;5.55;;;;;;;28.23;45.82;101735.97;21039782;28;20121;-61
2023/09/03 03:10:41;;;;;;;7.30;4.70;;;;;;;28.24;45.55;101720.75;21044467;28;20048;-61
2023/09/03 03:20:43;;;;;;;7.65;5.10;;;;;;;28.24;45.67;101708.66;21027094;28;20096;-63
2023/09/03 03:30:47;;;;;;;5.55;4.60;;;;;;;28.25;45.80;101735.66;21058545;28;20054;-62
2023/09/03 03:40:48;;;;;;;8.80;5.05;;;;;;;28.25;45.83;101715.94;21043959;28;20040;-61
2023/09/03 03:50:57;;;;;;;7.93;4.18;;;;;;;28.25;45.72;101683.00;21025522;28;20552;-61
2023/09/03 04:00:58;;;;;;;8.90;4.45;;;;;;;28.20;46.07;101663.41;21053282;28;20458;-61
2023/09/03 04:11:08;;;;;;;5.80;4.20;;;;;;;28.27;46.13;101674.25;21069292;28;20052;-62
2023/09/03 04:21:10;;;;;;;6.30;4.07;;;;;;;28.24;46.41;101624.22;21086656;28;20058;-62
2023/09/03 04:31:11;;;;;;;4.82;3.67;;;;;;;28.25;46.18;101597.75;21067739;28;20070;-62
2023/09/03 04:41:13;;;;;;;5.00;3.40;;;;;;;28.28;46.32;101580.25;21072428;28;20052;-62
2023/09/03 04:51:14;;;;;;;6.72;3.70;;;;;;;28.26;46.50;101600.25;21073852;28;20040;-60
2023/09/03 05:01:16;;;;;;;3.88;3.10;;;;;;;28.24;46.20;101608.19;21080750;28;20047;-60
2023/09/03 05:11:19;;;;;;;4.15;3.63;;;;;;;28.19;46.28;101625.19;21090639;28;20039;-62
2023/09/03 05:21:21;;;;;;;3.33;2.90;;;;;;;28.26;46.43;101622.75;21083643;28;20089;-63
2023/09/03 05:31:22;;;;;;;5.63;3.75;;;;;;;28.24;46.67;101629.84;21084553;28;20040;-61
2023/09/03 05:41:23;;;;;;;3.33;3.03;;;;;;;28.27;46.68;101632.88;21088379;28;20040;-60
2023/09/03 05:51:25;;;;;;;4.57;3.53;;;;;;;28.28;46.60;101642.16;21085930;28;20540;-61
2023/09/03 06:01:26;;;;;;;4.22;3.20;;;;;;;28.26;46.76;101650.91;21087211;28;20055;-61
2023/09/03 06:11:28;;;;;;;4.10;3.22;;;;;;;28.25;46.88;101663.31;21077878;28;20044;-61
2023/09/03 06:21:30;;;;;;;3.53;3.22;;;;;;;28.28;46.96;101644.97;21078954;28;20433;-61
2023/09/03 06:31:31;;;;;;;4.15;3.28;;;;;;;28.25;46.98;101637.16;21080000;28;20479;-61
2023/09/03 06:41:33;;;;;;;3.28;2.83;;;;;;;28.28;46.87;101631.72;21078921;28;20044;-61
2023/09/03 06:51:37;;;;;;;3.30;3.00;;;;;;;28.28;46.81;101619.66;21064513;28;20047;-61
2023/09/03 07:01:39;;;;;;;3.10;2.80;;;;;;;28.28;46.96;101606.41;21064772;28;20044;-61
2023/09/03 07:11:40;;;;;;;3.72;2.97;;;;;;;28.28;46.90;101595.13;21031516;28;20117;-62
2023/09/03 07:21:43;;;;;;;3.88;3.08;;;;;;;28.26;46.87;101588.16;21072084;28;20032;-63
2023/09/03 07:31:44;;;;;;;3.30;2.80;;;;;;;28.22;47.00;101582.31;21064348;28;20052;-61
2023/09/03 07:41:46;;;;;;;4.32;2.90;;;;;;;28.26;47.18;101572.09;21036862;28;20532;-60
2023/09/03 07:51:50;;;;;;;3.53;2.90;;;;;;;28.26;47.11;101566.47;21065651;28;20048;-61
2023/09/03 08:01:58;;;;;;;3.85;2.88;;;;;;;28.14;47.13;101535.25;21010531;28;20032;-61
2023/09/03 08:12:00;;;;;;;3.50;3.03;;;;;;;28.26;46.97;101560.84;21047524;28;20441;-62
2023/09/03 08:22:02;;;;;;;4.28;3.00;;;;;;;28.26;47.25;101555.22;21065592;28;20125;-60
2023/09/03 08:32:04;;;;;;;2.97;2.50;;;;;;;28.25;47.28;101559.19;21033056;28;20040;-62
2023/09/03 08:42:10;;;;;;;2.50;2.30;;;;;;;28.25;47.34;101564.81;21041694;28;20044;-61
2023/09/03 08:52:13;;;;;;;4.30;2.80;;;;;;;28.22;47.40;101551.34;21039677;28;20040;-62
2023/09/03 09:02:17;;;;;;;3.10;2.75;;;;;;;28.18;47.25;101533.47;21039476;28;20479;-60
2023/09/03 09:12:41;;;;;;;3.25;2.63;;;;;;;28.16;47.77;101524.50;21066907;28;20445;-60
2023/09/03 09:22:51;;;;;;;3.35;2.70;;;;;;;28.23;47.61;101527.72;21044710;28;20110;-61
2023/09/03 09:33:11;;;;;;;3.53;3.00;;;;;;;28.16;47.53;101544.19;21078854;28;20028;-61
2023/09/03 09:43:12;;;;;;;3.50;2.67;;;;;;;28.20;47.44;101536.78;21003985;28;20483;-61
2023/09/03 09:53:19;;;;;;;4.65;2.72;;;;;;;28.20;47.56;101550.03;21073241;28;20082;-61
2023/09/03 10:03:23;;;;;;;3.30;2.50;;;;;;;28.07;47.53;101527.22;21085868;28;20096;-61
2023/09/03 10:13:25;;;;;;;4.00;3.53;;;;;;;28.19;47.65;101540.75;21054480;28;20051;-61
2023/09/03 10:23:32;;;;;;;4.22;2.95;;;;;;;28.17;47.64;101536.59;21050927;28;20047;-62
2023/09/03 10:33:35;;;;;;;4.18;3.60;;;;;;;28.16;47.64;101544.19;21073888;28;20040;-61
2023/09/03 10:43:36;;;;;;;4.13;3.38;;;;;;;28.16;47.68;101532.94;21079381;28;20402;-60
2023/09/03 10:53:44;;;;;;;4.75;3.25;;;;;;;28.11;47.74;101536.69;21082167;28;20436;-61
2023/09/03 11:03:48;;;;;;;3.58;3.28;;;;;;;28.12;47.66;101537.53;21069697;28;20445;-61
2023/09/03 11:13:53;;;;;;;5.45;3.65;;;;;;;28.14;47.94;101552.13;21069400;28;20044;-61
2023/09/03 11:24:16;;;;;;;4.40;3.85;;;;;;;28.11;47.97;101542.31;21067909;28;20044;-61
2023/09/03 11:34:29;;;;;;;5.78;4.00;;;;;;;28.12;47.94;101552.44;21063662;28;20040;-61
2023/09/03 11:44:30;;;;;;;6.00;3.35;;;;;;;28.12;48.02;101566.50;21068156;28;20380;-61
2023/09/03 11:54:31;;;;;;;3.83;3.42;;;;;;;28.13;48.09;101578.56;21072283;28;20043;-60
2023/09/03 12:04:33;;;;;;;4.82;3.53;;;;;;;28.11;48.13;101572.44;21069722;28;20040;-61
2023/09/03 12:14:35;;;;;;;5.70;3.47;;;;;;;28.09;48.00;101563.50;21067940;28;20387;-60
2023/09/03 12:24:39;;;;;;;6.07;3.88;;;;;;;28.11;48.19;101586.50;21068848;28;20074;-60
2023/09/03 12:34:49;;;;;;;4.50;3.42;;;;;;;28.03;48.08;101559.94;21067263;28;20374;-60
2023/09/03 12:44:51;;;;;;;6.90;3.75;;;;;;;28.11;47.89;101575.25;21084064;28;20437;-61
2023/09/03 12:54:58;;;;;;;8.45;3.80;;;;;;;28.10;48.00;101563.19;21091408;28;20044;-61
2023/09/03 13:04:59;;;;;;;4.38;3.70;;;;;;;28.06;47.95;101548.06;21076295;28;20036;-59
2023/09/03 13:15:00;;;;;;;5.18;3.90;;;;;;;28.08;47.94;101548.56;21090173;28;20039;-60
2023/09/03 13:25:05;;;;;;;5.30;3.42;;;;;;;28.09;47.94;101538.19;21077838;28;20395;-61
2023/09/03 13:35:06;;;;;;;4.82;4.18;;;;;;;28.09;47.97;101538.19;21026480;28;20036;-63
2023/09/03 13:45:08;;;;;;;7.20;4.13;;;;;;;28.10;47.94;101531.41;21086668;28;20483;-61
2023/09/03 13:55:09;;;;;;;4.15;3.78;;;;;;;28.14;48.17;101523.16;21085708;28;20101;-61
2023/09/03 14:05:11;;;;;;;6.30;4.32;;;;;;;28.15;48.38;101520.03;21070644;28;20044;-65
2023/09/03 14:15:13;;;;;;;18.25;7.25;;;;;;;28.20;50.58;101519.91;21074656;28;20040;-60
2023/09/03 14:25:15;;;;;;;25.88;7.22;;;;;;;28.20;52.58;101511.47;21067890;28;20102;-61
2023/09/03 14:35:16;;;;;;;16.77;6.65;;;;;;;28.26;52.41;101498.09;21069141;28;20047;-61
2023/09/03 14:45:17;;;;;;;20.85;7.43;;;;;;;28.25;51.56;101480.38;21070323;28;20757;-60
2023/09/03 14:55:19;;;;;;;13.40;7.13;;;;;;;28.26;51.04;101465.16;21028129;28;20406;-60
2023/09/03 15:05:20;;;;;;;10.25;6.50;;;;;;;28.21;51.01;101436.31;21071191;28;20040;-59
2023/09/03 15:15:24;;;;;;;11.52;6.75;;;;;;;28.29;50.88;101430.75;21047422;28;20031;-59
2023/09/03 15:25:26;;;;;;;12.30;6.70;;;;;;;28.28;51.00;101415.03;21079608;28;20039;-60
2023/09/03 15:35:35;;;;;;;10.23;8.05;;;;;;;28.31;50.70;101394.66;21073934;28;20066;-59
2023/09/03 15:45:40;;;;;;;10.27;8.05;;;;;;;28.36;50.49;101385.28;21074191;28;20070;-59
2023/09/03 15:55:44;;;;;;;11.07;8.50;;;;;;;28.30;50.71;101364.88;21074239;28;20048;-60
2023/09/03 16:05:45;;;;;;;9.85;8.85;;;;;;;28.39;50.38;101355.69;21078874;28;20101;-60
2023/09/03 16:15:48;;;;;;;9.52;8.48;;;;;;;28.43;50.10;101356.69;21075736;28;20044;-60
2023/09/03 16:25:50;;;;;;;8.77;7.88;;;;;;;28.40;50.17;101334.81;21075887;28;20040;-60
2023/09/03 16:35:58;;;;;;;11.40;9.07;;;;;;;28.45;49.85;101326.22;21069244;28;20548;-59
2023/09/03 16:45:59;;;;;;;10.43;8.65;;;;;;;28.49;49.88;101304.72;21074084;28;20048;-60
2023/09/03 16:56:01;;;;;;;9.25;8.32;;;;;;;28.50;49.68;101283.84;21071808;28;20376;-61
2023/09/03 17:06:05;;;;;;;9.35;8.35;;;;;;;28.52;49.82;101275.94;21073763;28;20036;-60
2023/09/03 17:16:06;;;;;;;10.18;8.32;;;;;;;28.54;49.70;101263.19;21032486;28;20040;-61
2023/09/03 17:26:09;;;;;;;12.48;8.13;;;;;;;28.58;49.92;101266.19;21062941;28;20036;-61
2023/09/03 17:36:10;;;;;;;9.55;8.05;;;;;;;28.59;49.50;101248.13;21083239;28;20052;-60
2023/09/03 17:46:12;;;;;;;9.45;8.35;;;;;;;28.62;50.00;101247.47;21083440;28;20048;-62
2023/09/03 17:56:13;;;;;;;15.63;8.23;;;;;;;28.52;49.45;101222.44;21081428;28;20040;-62
2023/09/03 18:06:15;;;;;;;11.40;8.10;;;;;;;28.64;49.83;101214.22;21083337;28;20040;-63
2023/09/03 18:16:17;;;;;;;12.27;7.85;;;;;;;28.66;49.49;101220.31;21073497;28;20597;-61
2023/09/03 18:26:23;;;;;;;9.85;7.78;;;;;;;28.69;49.55;101199.97;21079898;28;20176;-60
2023/09/03 18:36:27;;;;;;;8.90;7.63;;;;;;;28.70;49.74;101179.09;21083412;28;20044;-62
2023/09/03 18:46:44;;;;;;;;;;;;;;;;;;;;;
2023/09/03 18:56:47;;;;;;;13.38;7.95;;;;;;;28.75;49.58;101147.97;21056359;28;20129;-60
2023/09/03 19:06:48;;;;;;;11.88;7.07;;;;;;;28.78;49.84;101141.66;21059214;28;20372;-60
2023/09/03 19:16:50;;;;;;;8.38;6.15;;;;;;;28.79;49.48;101122.78;21057246;28;20077;-61
2023/09/03 19:26:52;;;;;;;10.68;6.75;;;;;;;28.81;49.94;101104.38;21074110;28;20560;-60
2023/09/03 19:36:54;;;;;;;7.65;6.85;;;;;;;28.82;49.76;101096.78;21066487;28;20044;-62
2023/09/03 19:46:55;;;;;;;6.90;6.20;;;;;;;28.81;49.91;101081.84;21044263;28;20482;-62
2023/09/03 19:56:57;;;;;;;9.85;6.78;;;;;;;28.87;49.59;101063.63;21042976;28;20109;-60
2023/09/03 20:06:58;;;;;;;10.68;6.57;;;;;;;28.88;49.78;101054.03;21031777;28;20036;-62
2023/09/03 20:16:59;;;;;;;19.38;7.28;;;;;;;28.91;49.69;101046.91;21064860;28;20047;-62
2023/09/03 20:27:04;;;;;;;10.98;7.22;;;;;;;28.94;49.41;101053.84;21069475;28;20040;-61
2023/09/03 20:37:08;;;;;;;8.95;6.53;;;;;;;28.95;49.52;101036.63;21069133;28;20032;-62
2023/09/03 20:47:13;;;;;;;6.65;5.82;;;;;;;28.96;49.38;101037.50;21049256;28;20040;-61
2023/09/03 20:57:15;;;;;;;9.07;6.80;;;;;;;28.93;49.89;101026.84;21045559;28;20059;-61
2023/09/03 21:07:16;;;;;;;13.43;7.20;;;;;;;28.95;49.69;101027.31;21061345;28;20442;-62
2023/09/03 21:17:20;;;;;;;7.72;6.75;;;;;;;28.97;49.60;101039.97;21088856;28;20036;-60
2023/09/03 21:27:22;;;;;;;10.43;6.75;;;;;;;28.96;50.10;101034.66;21083387;28;20156;-61
2023/09/03 21:37:24;;;;;;;16.88;7.13;;;;;;;28.99;50.54;101033.97;21039987;28;20093;-61
2023/09/03 21:47:25;;;;;;;8.75;6.15;;;;;;;28.98;50.57;101026.69;21069251;28;20483;-61
2023/09/03 21:57:26;;;;;;;8.13;6.65;;;;;;;28.97;50.35;101022.22;21077413;28;20584;-61
2023/09/03 22:07:27;;;;;;;12.75;6.60;;;;;;;29.07;50.06;101033.16;21079354;28;20093;-63
2023/09/03 22:17:29;;;;;;;12.95;6.57;;;;;;;29.05;50.28;101041.13;21075217;28;20040;-60
2023/09/03 22:27:30;;;;;;;9.20;6.18;;;;;;;29.07;50.52;101028.34;21079391;28;20040;-61
2023/09/03 22:37:31;;;;;;;11.55;6.18;;;;;;;29.08;50.29;101034.78;21045941;28;20108;-62
2023/09/03 22:47:34;;;;;;;6.88;5.95;;;;;;;29.10;50.13;101055.03;21055075;28;20105;-63
2023/09/03 22:57:35;;;;;;;9.88;6.70;;;;;;;29.06;50.16;101048.41;21070323;28;20414;-61
2023/09/03 23:07:36;;;;;;;10.82;6.75;;;;;;;29.11;50.32;101062.31;21075497;28;20161;-63
2023/09/03 23:17:40;;;;;;;7.15;5.85;;;;;;;29.11;49.96;101049.06;21069020;28;20051;-61
2023/09/03 23:27:45;;;;;;;7.47;6.65;;;;;;;29.08;49.99;101048.88;21066484;28;20035;-61
2023/09/03 23:37:47;;;;;;;10.70;6.75;;;;;;;29.13;49.66;101069.25;21060859;28;20044;-60
2023/09/03 23:47:48;;;;;;;12.05;6.68;;;;;;;29.11;49.79;101070.75;21052575;28;20406;-61
2023/09/03 23:57:50;;;;;;;13.50;7.03;;;;;;;29.18;50.04;101078.69;21067708;28;20044;-61
